Pagrindinis puslapis
METAR-TAF:

METAR-TAF

Oro uostai :

Konakris, Gvinėja

platuma: 09-34N, ilguma: 013-37W, Aukštis: 26 m

Dabartinis oras

Ataskaita buvo paskelbta 3 valandos ir 53 minutes, ne 00:00 UTC
Vėjas 4 kt iš Vakarų/Šiaurės Vakarų
Temperatūra 27°C
Drėgmė 89%
Slėgis 1012 hPa
Matomumas: 2000 m
rūkana

METAR: GUCY 170000Z 29004KT 2000 BR NSC 27/25 Q1012 NOSIG

Laikas: 03:53 (03:53 UTC)

Prognozė

Ataskaita buvo paskelbta 4 valandos ir 53 minutes, ne 23:00 UTC
Prognozė galioja nuo 17 metu 00 UTC su 18 metu 06 UTC
Vėjas 8 kt iš Vakarų/Šiaurės Vakarų
Matomumas: 4000 m
migla
Laikinai
nuo 17 metu 04 UTC su 17 metu 10 UTC
Vėjas 2 kt nuo kintamojo kryptimis
Matomumas: 3000 m
Išsisklaidę debesys ne aukštis 11000 ft
rūkana

TAF: GUCY 162300Z 1700/1806 30008KT 4000 HZ NSC TEMPO 1704/1710 VRB02KT 3000 BR SCT110

Orai ataskaitas ir orų prognozės (METAR, TAF).

turimą stotys yra geltonos ir raudonos taškus žemėlapyje.

Perkelti pele per norėdami pamatyti stoties vardą.

Tada spustelėkite, norėdami matyti oro stebėjimo ir prognozės.

Norėdami pakeisti žemėlapį: spustelėkite ant žalios mygtukų su juodo kryžiaus žemyn,; žalią mygtuką su brūkšneliu, jei norite nutolinti; arba žalių rodyklių gretimoms žemėlapius.


METAR-TAF: